createdAt,value
2023-04-03T00:01:26.716Z,100.00
2023-04-03T00:03:55.673Z,100.00
2023-04-03T00:06:25.851Z,100.00
2023-04-03T00:08:56.598Z,100.00
2023-04-03T00:11:24.966Z,100.00
2023-04-03T00:13:53.884Z,100.00
2023-04-03T00:16:22.288Z,100.00
2023-04-03T00:18:50.771Z,100.00
2023-04-03T00:21:19.184Z,100.00
2023-04-03T00:23:47.594Z,100.00
2023-04-03T00:26:17.442Z,100.00
2023-04-03T00:28:46.201Z,100.00
2023-04-03T00:31:17.598Z,100.00
2023-04-03T00:33:46.140Z,100.00
2023-04-03T00:36:15.593Z,100.00
2023-04-03T00:38:44.033Z,100.00
2023-04-03T00:41:12.491Z,100.00
2023-04-03T00:43:42.433Z,100.00
2023-04-03T00:46:11.147Z,100.00
2023-04-03T00:48:43.565Z,100.00
2023-04-03T00:51:16.831Z,100.00
2023-04-03T00:53:49.903Z,100.00
2023-04-03T00:56:23.781Z,100.00
2023-04-03T00:58:58.001Z,100.00
2023-04-03T01:01:30.656Z,100.00
2023-04-03T01:04:00.798Z,100.00
2023-04-03T01:06:33.721Z,100.00
2023-04-03T01:09:08.631Z,100.00
2023-04-03T01:11:37.202Z,100.00
2023-04-03T01:14:07.467Z,100.00
2023-04-03T01:16:35.967Z,100.00
2023-04-03T01:19:10.240Z,100.00
2023-04-03T01:22:08.471Z,100.00
2023-04-03T01:24:39.860Z,100.00
2023-04-03T01:27:13.069Z,100.00
2023-04-03T01:29:44.382Z,100.00
2023-04-03T01:32:14.805Z,100.00
2023-04-03T01:34:44.506Z,100.00
2023-04-03T01:37:12.934Z,100.00
2023-04-03T01:39:41.788Z,100.00
2023-04-03T01:42:09.988Z,100.00
2023-04-03T01:44:41.804Z,100.00
2023-04-03T01:47:10.477Z,100.00
2023-04-03T01:49:41.844Z,100.00
2023-04-03T01:52:10.048Z,100.00
2023-04-03T01:54:39.223Z,100.00
2023-04-03T01:57:07.397Z,100.00
2023-04-03T01:59:35.967Z,100.00
2023-04-03T02:02:04.309Z,100.00
2023-04-03T02:04:32.763Z,100.00
2023-04-03T02:07:02.392Z,100.00
2023-04-03T02:09:30.568Z,100.00
2023-04-03T02:11:59.021Z,100.00
2023-04-03T02:14:28.507Z,100.00
2023-04-03T02:16:56.899Z,100.00
2023-04-03T02:19:25.350Z,100.00
2023-04-03T02:21:53.776Z,100.00
2023-04-03T02:24:23.876Z,100.00
2023-04-03T02:26:52.245Z,100.00
2023-04-03T02:29:21.421Z,100.00
2023-04-03T02:31:50.156Z,100.00
2023-04-03T02:34:18.914Z,100.00
2023-04-03T02:36:48.457Z,100.00
2023-04-03T02:39:18.254Z,100.00
2023-04-03T02:41:48.545Z,100.00
2023-04-03T02:44:24.530Z,100.00
2023-04-03T02:46:54.325Z,100.00
2023-04-03T02:49:22.767Z,100.00
2023-04-03T02:51:51.883Z,100.00
2023-04-03T02:54:20.353Z,100.00
2023-04-03T02:56:54.791Z,100.00
2023-04-03T02:59:23.550Z,100.00
2023-04-03T03:01:52.068Z,100.00
2023-04-03T03:04:21.052Z,100.00
2023-04-03T03:06:49.712Z,100.00
2023-04-03T03:09:18.048Z,100.00
2023-04-03T03:11:46.735Z,100.00
2023-04-03T03:14:16.493Z,100.00
2023-04-03T03:16:44.851Z,100.00
2023-04-03T03:19:13.406Z,100.00
2023-04-03T03:21:42.046Z,100.00
2023-04-03T03:24:10.780Z,100.00
2023-04-03T03:26:39.253Z,100.00
2023-04-03T03:29:07.591Z,100.00
2023-04-03T03:31:37.703Z,100.00
2023-04-03T03:34:06.192Z,100.00
2023-04-03T03:36:34.535Z,100.00
2023-04-03T03:39:04.472Z,100.00
2023-04-03T03:41:32.783Z,100.00
2023-04-03T03:44:02.134Z,100.00
2023-04-03T03:46:33.225Z,100.00
2023-04-03T03:49:02.992Z,100.00
2023-04-03T03:51:31.864Z,100.00
2023-04-03T03:54:00.346Z,100.00
2023-04-03T03:56:28.920Z,100.00
2023-04-03T03:58:58.250Z,100.00
2023-04-03T04:01:26.817Z,100.00
2023-04-03T04:03:55.931Z,100.00
2023-04-03T04:06:29.850Z,100.00
2023-04-03T04:09:01.400Z,100.00
2023-04-03T04:11:30.878Z,100.00
2023-04-03T04:13:59.337Z,100.00
2023-04-03T04:16:30.555Z,100.00
2023-04-03T04:19:02.794Z,100.00
2023-04-03T04:21:33.508Z,100.00
2023-04-03T04:24:02.365Z,100.00
2023-04-03T04:26:30.844Z,100.00
2023-04-03T04:28:59.286Z,100.00
2023-04-03T04:31:27.796Z,100.00
2023-04-03T04:33:56.078Z,100.00
2023-04-03T04:36:24.650Z,100.00
2023-04-03T04:38:55.670Z,100.00
2023-04-03T04:41:27.039Z,100.00
2023-04-03T04:43:55.809Z,100.00
2023-04-03T04:46:25.687Z,100.00
2023-04-03T04:48:58.000Z,100.00
2023-04-03T04:51:35.047Z,100.00
2023-04-03T04:54:08.143Z,100.00
2023-04-03T04:56:36.589Z,100.00
2023-04-03T04:59:06.283Z,100.00
2023-04-03T05:01:35.012Z,100.00
2023-04-03T05:04:17.485Z,100.00
2023-04-03T05:06:49.187Z,100.00
2023-04-03T05:09:23.960Z,100.00
2023-04-03T05:11:53.555Z,100.00
2023-04-03T05:14:25.544Z,100.00
2023-04-03T05:16:54.984Z,100.00
2023-04-03T05:19:26.623Z,100.00
2023-04-03T05:21:55.740Z,100.00
2023-04-03T05:24:26.962Z,100.00
2023-04-03T05:26:55.193Z,100.00
2023-04-03T05:29:24.247Z,100.00
2023-04-03T05:31:53.156Z,100.00
2023-04-03T05:34:21.488Z,100.00
2023-04-03T05:36:52.499Z,100.00
2023-04-03T05:39:20.945Z,100.00
2023-04-03T05:41:51.153Z,100.00
2023-04-03T05:44:19.810Z,100.00
2023-04-03T05:46:49.441Z,100.00
2023-04-03T05:49:17.726Z,100.00
2023-04-03T05:51:46.821Z,100.00
2023-04-03T05:54:27.561Z,100.00
2023-04-03T05:57:04.248Z,100.00
2023-04-03T05:59:32.503Z,100.00
2023-04-03T06:02:02.117Z,100.00
2023-04-03T06:04:31.428Z,100.00
2023-04-03T06:07:00.628Z,100.00
2023-04-03T06:09:31.271Z,100.00
2023-04-03T06:12:00.436Z,100.00
2023-04-03T06:14:31.700Z,100.00
2023-04-03T06:17:00.423Z,100.00
2023-04-03T06:19:28.680Z,100.00
2023-04-03T06:21:58.674Z,100.00
2023-04-03T06:24:27.151Z,100.00
2023-04-03T06:26:55.595Z,100.00
2023-04-03T06:29:23.822Z,100.00
2023-04-03T06:31:53.944Z,100.00
2023-04-03T06:34:22.266Z,100.00
2023-04-03T06:36:51.579Z,100.00
2023-04-03T06:39:22.978Z,100.00
2023-04-03T06:41:52.085Z,100.00
2023-04-03T06:44:28.041Z,100.00
2023-04-03T06:46:57.586Z,100.00
2023-04-03T06:49:26.220Z,100.00
2023-04-03T06:51:54.458Z,100.00
2023-04-03T06:54:22.615Z,100.00
2023-04-03T06:56:52.010Z,100.00
2023-04-03T06:59:20.622Z,100.00
2023-04-03T07:01:50.029Z,100.00
2023-04-03T07:04:21.190Z,100.00
2023-04-03T07:06:49.830Z,100.00
2023-04-03T07:09:18.242Z,100.00
2023-04-03T07:11:46.732Z,100.00
2023-04-03T07:14:14.882Z,100.00
2023-04-03T07:16:43.171Z,100.00
2023-04-03T07:19:11.450Z,100.00
2023-04-03T07:21:42.871Z,100.00
2023-04-03T07:24:15.061Z,100.00
2023-04-03T07:26:46.073Z,100.00
2023-04-03T07:29:14.931Z,100.00
2023-04-03T07:31:43.422Z,100.00
2023-04-03T07:34:11.758Z,100.00
2023-04-03T07:36:41.633Z,100.00
2023-04-03T07:39:09.766Z,100.00
2023-04-03T07:41:37.954Z,100.00
2023-04-03T07:44:06.583Z,100.00
2023-04-03T07:46:34.779Z,100.00
2023-04-03T07:49:03.175Z,100.00
2023-04-03T07:51:31.835Z,100.00
2023-04-03T07:54:01.858Z,100.00
2023-04-03T07:56:30.050Z,100.00
2023-04-03T07:58:58.216Z,100.00
2023-04-03T08:01:26.472Z,100.00
2023-04-03T08:03:54.835Z,100.00
2023-04-03T08:06:33.076Z,100.00
2023-04-03T08:09:12.054Z,100.00
2023-04-03T08:11:41.143Z,100.00
2023-04-03T08:14:11.925Z,100.00
2023-04-03T08:16:40.163Z,100.00
2023-04-03T08:19:12.398Z,100.00
2023-04-03T08:21:43.843Z,100.00
2023-04-03T08:24:13.554Z,100.00
2023-04-03T08:26:41.699Z,100.00
2023-04-03T08:29:09.818Z,100.00
2023-04-03T08:31:37.990Z,100.00
2023-04-03T08:34:06.277Z,100.00
2023-04-03T08:36:34.603Z,100.00
2023-04-03T08:39:03.292Z,100.00
2023-04-03T08:41:37.597Z,100.00
2023-04-03T08:44:27.226Z,100.00
2023-04-03T08:47:20.009Z,100.00
2023-04-03T08:49:52.971Z,100.00
2023-04-03T08:52:38.094Z,100.00
2023-04-03T08:55:09.603Z,100.00
2023-04-03T08:57:43.541Z,100.00
2023-04-03T09:00:24.571Z,100.00
2023-04-03T09:02:54.795Z,100.00
2023-04-03T09:05:39.886Z,100.00
2023-04-03T09:08:23.154Z,100.00
2023-04-03T09:10:54.293Z,100.00
2023-04-03T09:13:32.571Z,100.00
2023-04-03T09:16:27.693Z,100.00
2023-04-03T09:19:04.342Z,100.00
2023-04-03T09:21:38.981Z,100.00
2023-04-03T09:24:09.841Z,100.00
2023-04-03T09:26:45.827Z,100.00
2023-04-03T09:29:21.636Z,100.00
2023-04-03T09:31:52.560Z,100.00
2023-04-03T09:34:28.197Z,100.00
2023-04-03T09:36:58.030Z,100.00
2023-04-03T09:39:29.717Z,100.00
2023-04-03T09:42:03.945Z,100.00
2023-04-03T09:44:36.353Z,100.00
2023-04-03T09:47:25.852Z,100.00
2023-04-03T09:50:21.955Z,100.00
2023-04-03T09:52:53.595Z,100.00
2023-04-03T09:55:28.141Z,100.00
2023-04-03T09:57:56.593Z,100.00
2023-04-03T10:00:30.971Z,93.31
2023-04-03T10:03:00.576Z,93.95
2023-04-03T10:05:36.028Z,94.39
2023-04-03T10:08:22.623Z,86.23
2023-04-03T10:11:11.016Z,82.68
2023-04-03T10:13:53.110Z,80.21
2023-04-03T10:16:28.476Z,81.54
2023-04-03T10:19:15.597Z,85.04
2023-04-03T10:21:51.727Z,69.14
2023-04-03T10:24:27.231Z,70.25
2023-04-03T10:27:05.597Z,70.78
2023-04-03T10:29:44.748Z,71.40
2023-04-03T10:32:57.621Z,68.79
2023-04-03T10:35:42.962Z,67.21
2023-04-03T10:38:22.564Z,67.69
2023-04-03T10:40:59.858Z,67.05
2023-04-03T10:43:37.593Z,68.17
2023-04-03T10:46:12.488Z,66.26
2023-04-03T10:48:58.626Z,62.15
2023-04-03T10:51:39.436Z,60.01
2023-04-03T10:54:14.055Z,58.54
2023-04-03T10:56:46.649Z,59.07
2023-04-03T10:59:20.615Z,62.01
2023-04-03T11:01:53.912Z,61.32
2023-04-03T11:04:28.746Z,56.03
2023-04-03T11:07:02.105Z,56.79
2023-04-03T11:09:33.958Z,58.35
2023-04-03T11:12:08.583Z,56.33
2023-04-03T11:14:40.031Z,57.08
2023-04-03T11:17:23.469Z,58.22
2023-04-03T11:20:03.348Z,60.58
2023-04-03T11:22:35.785Z,59.73
2023-04-03T11:25:20.790Z,58.79
2023-04-03T11:27:55.804Z,54.57
2023-04-03T11:30:30.127Z,55.20
2023-04-03T11:33:14.947Z,54.43
2023-04-03T11:35:49.156Z,55.26
2023-04-03T11:38:25.664Z,56.39
2023-04-03T11:40:56.185Z,51.74
2023-04-03T11:43:30.230Z,50.38
2023-04-03T11:46:01.856Z,50.66
2023-04-03T11:48:54.122Z,52.61
2023-04-03T11:51:44.430Z,50.59
2023-04-03T11:54:47.633Z,50.89
2023-04-03T11:57:49.420Z,53.03
2023-04-03T12:00:56.779Z,53.03
2023-04-03T12:04:08.366Z,51.46
2023-04-03T12:07:20.806Z,52.31
2023-04-03T12:10:30.391Z,53.22
2023-04-03T12:13:04.934Z,51.45
2023-04-03T12:15:55.611Z,52.07
2023-04-03T12:19:03.784Z,48.91
2023-04-03T12:22:17.783Z,48.50
2023-04-03T12:24:49.540Z,47.58
2023-04-03T12:27:36.438Z,46.78
2023-04-03T12:30:17.727Z,46.82
2023-04-03T12:33:12.038Z,48.32
2023-04-03T12:35:53.049Z,47.88
2023-04-03T12:39:03.325Z,46.94
2023-04-03T12:41:45.921Z,48.17
2023-04-03T12:44:42.607Z,48.28
2023-04-03T12:47:29.232Z,46.97
2023-04-03T12:49:59.466Z,46.36
2023-04-03T12:52:43.436Z,43.38
2023-04-03T12:55:18.211Z,43.37
2023-04-03T12:57:48.348Z,43.20
2023-04-03T13:00:40.194Z,43.47
2023-04-03T13:03:22.704Z,43.09
2023-04-03T13:05:51.134Z,43.42
2023-04-03T13:08:21.106Z,41.86
2023-04-03T13:10:57.598Z,41.45
2023-04-03T13:13:27.317Z,41.85
2023-04-03T13:15:56.314Z,41.62
2023-04-03T13:18:32.116Z,41.39
2023-04-03T13:21:06.976Z,40.50
2023-04-03T13:23:40.615Z,41.55
2023-04-03T13:26:09.429Z,41.49
2023-04-03T13:28:41.899Z,41.53
2023-04-03T13:31:21.270Z,41.76
2023-04-03T13:33:59.389Z,40.81
2023-04-03T13:36:32.506Z,41.07
2023-04-03T13:39:03.791Z,41.36
2023-04-03T13:41:37.837Z,42.01
2023-04-03T13:44:33.315Z,41.62
2023-04-03T13:47:15.758Z,41.46
2023-04-03T13:49:47.105Z,40.72
2023-04-03T13:52:29.071Z,40.46
2023-04-03T13:55:04.368Z,41.41
2023-04-03T13:57:36.318Z,41.16
2023-04-03T14:00:40.211Z,41.55
2023-04-03T14:03:18.566Z,41.23
2023-04-03T14:05:47.386Z,40.81
2023-04-03T14:08:15.764Z,40.71
2023-04-03T14:10:44.452Z,41.96
2023-04-03T14:13:15.552Z,40.65
2023-04-03T14:15:46.143Z,40.18
2023-04-03T14:18:16.119Z,39.51
2023-04-03T14:20:48.247Z,39.64
2023-04-03T14:23:16.531Z,39.47
2023-04-03T14:25:45.173Z,39.93
2023-04-03T14:28:20.089Z,40.05
2023-04-03T14:30:51.946Z,39.88
2023-04-03T14:33:23.488Z,40.11
2023-04-03T14:35:53.673Z,39.57
2023-04-03T14:38:26.844Z,39.41
2023-04-03T14:41:00.961Z,39.80
2023-04-03T14:43:34.787Z,39.52
2023-04-03T14:46:04.597Z,39.68
2023-04-03T14:48:33.052Z,39.49
2023-04-03T14:51:05.568Z,38.18
2023-04-03T14:56:13.440Z,39.53
2023-04-03T14:58:41.608Z,40.41
2023-04-03T15:01:15.076Z,40.71
2023-04-03T15:03:43.515Z,39.79
2023-04-03T15:06:13.659Z,40.00
2023-04-03T15:08:43.203Z,41.97
2023-04-03T15:11:12.504Z,39.58
2023-04-03T15:13:41.599Z,39.52
2023-04-03T15:16:20.152Z,39.49
2023-04-03T15:18:49.343Z,39.41
2023-04-03T15:21:17.621Z,38.13
2023-04-03T15:23:45.832Z,39.77
2023-04-03T15:26:14.118Z,38.42
2023-04-03T15:28:44.764Z,39.00
2023-04-03T15:31:14.735Z,38.04
2023-04-03T15:33:43.527Z,37.36
2023-04-03T15:36:23.022Z,38.42
2023-04-03T15:39:00.013Z,39.21
2023-04-03T15:41:28.198Z,39.07
2023-04-03T15:43:56.321Z,40.05
2023-04-03T15:46:26.089Z,39.68
2023-04-03T15:48:54.476Z,41.03
2023-04-03T15:51:22.620Z,39.80
2023-04-03T15:53:50.804Z,39.48
2023-04-03T15:56:18.994Z,40.16
2023-04-03T15:58:47.187Z,39.72
2023-04-03T16:01:15.493Z,40.25
2023-04-03T16:03:47.234Z,40.95
2023-04-03T16:06:16.884Z,42.20
2023-04-03T16:08:45.523Z,42.65
2023-04-03T16:11:14.185Z,41.98
2023-04-03T16:13:43.389Z,42.95
2023-04-03T16:16:12.152Z,42.38
2023-04-03T16:18:41.506Z,44.76
2023-04-03T16:21:11.705Z,43.83
2023-04-03T16:23:39.869Z,43.84
2023-04-03T16:26:08.075Z,44.52
2023-04-03T16:28:36.336Z,45.46
2023-04-03T16:31:05.431Z,45.44
2023-04-03T16:33:33.760Z,45.34
2023-04-03T16:36:02.528Z,45.51
2023-04-03T16:38:32.245Z,46.56
2023-04-03T16:41:05.110Z,45.93
2023-04-03T16:43:33.993Z,45.43
2023-04-03T16:46:03.415Z,45.44
2023-04-03T16:48:32.296Z,45.92
2023-04-03T16:51:00.764Z,46.16
2023-04-03T16:53:31.025Z,45.39
2023-04-03T16:56:00.853Z,45.81
2023-04-03T16:58:30.009Z,45.47
2023-04-03T17:00:58.381Z,47.33
2023-04-03T17:03:27.102Z,47.10
2023-04-03T17:05:55.434Z,47.27
2023-04-03T17:08:23.730Z,46.66
2023-04-03T17:10:54.561Z,46.53
2023-04-03T17:13:22.965Z,48.27
2023-04-03T17:15:51.649Z,47.81
2023-04-03T17:18:19.801Z,47.99
2023-04-03T17:20:47.962Z,48.19
2023-04-03T17:23:16.191Z,48.25
2023-04-03T17:25:44.571Z,49.35
2023-04-03T17:28:14.315Z,50.20
2023-04-03T17:30:43.012Z,52.20
2023-04-03T17:33:11.899Z,53.84
2023-04-03T17:35:40.436Z,54.08
2023-04-03T17:38:08.828Z,55.40
2023-04-03T17:40:37.076Z,58.68
2023-04-03T17:43:07.152Z,60.06
2023-04-03T17:45:36.772Z,62.49
2023-04-03T17:48:05.480Z,66.65
2023-04-03T17:50:34.147Z,66.63
2023-04-03T17:53:02.384Z,67.27
2023-04-03T17:55:30.829Z,71.28
2023-04-03T17:57:59.511Z,70.97
2023-04-03T18:00:27.838Z,71.02
2023-04-03T18:02:57.701Z,73.67
2023-04-03T18:05:32.222Z,73.85
2023-04-03T18:08:03.367Z,72.87
2023-04-03T18:10:36.309Z,74.69
2023-04-03T18:13:06.181Z,76.25
2023-04-03T18:15:34.599Z,78.07
2023-04-03T18:18:04.269Z,77.92
2023-04-03T18:20:32.599Z,78.15
2023-04-03T18:23:00.978Z,79.98
2023-04-03T18:25:30.457Z,83.67
2023-04-03T18:36:20.262Z,84.86
2023-04-03T18:39:47.160Z,84.06
2023-04-03T18:43:27.355Z,83.33
2023-04-03T18:46:27.035Z,85.43
2023-04-03T18:49:30.908Z,90.65
2023-04-03T18:52:19.848Z,85.81
2023-04-03T18:55:32.321Z,88.87
2023-04-03T19:02:27.297Z,91.06
2023-04-03T19:09:41.110Z,91.45
2023-04-03T19:12:28.663Z,93.12
2023-04-03T19:15:04.080Z,92.55
2023-04-03T19:17:37.782Z,92.12
2023-04-03T19:20:25.325Z,92.16
2023-04-03T19:22:59.733Z,90.81
2023-04-03T19:25:32.967Z,91.62
2023-04-03T19:28:09.650Z,90.58
2023-04-03T19:31:10.382Z,92.48
2023-04-03T19:33:44.606Z,90.35
2023-04-03T19:36:20.779Z,93.09
2023-04-03T19:38:52.787Z,92.12
2023-04-03T19:41:31.714Z,96.00
2023-04-03T19:44:03.918Z,93.00
2023-04-03T19:46:39.890Z,95.44
2023-04-03T19:49:08.298Z,94.42
2023-04-03T19:51:42.743Z,94.76
2023-04-03T19:54:13.872Z,92.33
2023-04-03T19:56:46.022Z,95.28
2023-04-03T19:59:14.944Z,91.17
2023-04-03T20:01:51.299Z,92.36
2023-04-03T20:04:26.357Z,90.27
2023-04-03T20:06:57.581Z,92.25
2023-04-03T20:09:34.080Z,89.65
2023-04-03T20:12:04.137Z,90.04
2023-04-03T20:14:32.678Z,90.98
2023-04-03T20:17:01.108Z,89.69
2023-04-03T20:19:30.185Z,90.97
2023-04-03T20:22:00.598Z,89.73
2023-04-03T20:24:28.853Z,90.54
2023-04-03T20:26:57.708Z,91.75
2023-04-03T20:29:27.708Z,91.15
2023-04-03T20:31:55.991Z,92.12
2023-04-03T20:34:24.391Z,94.24
2023-04-03T20:36:52.982Z,96.62
2023-04-03T20:39:24.106Z,95.89
2023-04-03T20:41:52.548Z,96.66
2023-04-03T20:44:21.867Z,96.61
2023-04-03T20:46:53.758Z,98.15
2023-04-03T20:49:22.684Z,99.79
2023-04-03T20:51:51.568Z,99.18
2023-04-03T20:54:20.020Z,99.61
2023-04-03T20:56:49.596Z,99.96
2023-04-03T20:59:18.647Z,100.00
2023-04-03T21:01:48.857Z,100.00
2023-04-03T21:04:26.460Z,100.00
2023-04-03T21:07:53.346Z,100.00
2023-04-03T21:11:17.899Z,100.00
2023-04-03T21:14:44.542Z,100.00
2023-04-03T21:17:12.282Z,100.00
2023-04-03T21:19:46.015Z,100.00
2023-04-03T21:22:16.280Z,100.00
2023-04-03T21:24:45.222Z,100.00
2023-04-03T21:27:13.586Z,100.00
2023-04-03T21:29:42.317Z,100.00
2023-04-03T21:32:10.550Z,100.00
2023-04-03T21:34:39.060Z,100.00
2023-04-03T21:37:11.630Z,100.00
2023-04-03T21:39:40.226Z,100.00
2023-04-03T21:42:08.425Z,100.00
2023-04-03T21:44:36.597Z,100.00
2023-04-03T21:47:04.960Z,100.00
2023-04-03T21:49:33.288Z,100.00
2023-04-03T21:52:01.524Z,100.00
2023-04-03T21:54:31.023Z,100.00
2023-04-03T21:56:59.177Z,100.00
2023-04-03T21:59:27.519Z,100.00
2023-04-03T22:01:55.866Z,100.00
2023-04-03T22:04:24.563Z,100.00
2023-04-03T22:06:53.366Z,100.00
2023-04-03T22:09:21.564Z,100.00
2023-04-03T22:11:51.446Z,100.00
2023-04-03T22:14:20.249Z,100.00
2023-04-03T22:16:48.675Z,100.00
2023-04-03T22:19:16.977Z,100.00
2023-04-03T22:21:45.219Z,100.00
2023-04-03T22:24:13.463Z,100.00
2023-04-03T22:26:44.255Z,100.00
2023-04-03T22:29:14.107Z,100.00
2023-04-03T22:31:42.611Z,100.00
2023-04-03T22:34:11.054Z,100.00
2023-04-03T22:36:39.200Z,100.00
2023-04-03T22:39:10.188Z,100.00
2023-04-03T22:41:38.449Z,100.00
2023-04-03T22:44:06.958Z,100.00
2023-04-03T22:46:36.563Z,100.00
2023-04-03T22:49:05.336Z,100.00
2023-04-03T22:51:35.745Z,100.00
2023-04-03T22:54:04.391Z,100.00
2023-04-03T22:56:32.533Z,100.00
2023-04-03T22:59:00.770Z,100.00
2023-04-03T23:01:30.161Z,100.00
2023-04-03T23:03:59.775Z,100.00
2023-04-03T23:06:28.096Z,100.00
2023-04-03T23:08:56.242Z,100.00
2023-04-03T23:11:24.410Z,100.00
2023-04-03T23:13:52.566Z,100.00
2023-04-03T23:16:20.757Z,100.00
2023-04-03T23:18:49.957Z,100.00
2023-04-03T23:21:19.544Z,100.00
2023-04-03T23:23:47.729Z,100.00
2023-04-03T23:26:15.981Z,100.00
2023-04-03T23:28:44.199Z,100.00
2023-04-03T23:31:12.490Z,100.00
2023-04-03T23:33:43.763Z,100.00
2023-04-03T23:36:15.785Z,100.00
2023-04-03T23:38:45.296Z,100.00
2023-04-03T23:41:13.948Z,100.00
2023-04-03T23:43:42.787Z,100.00
2023-04-03T23:46:11.046Z,100.00
2023-04-03T23:48:39.256Z,100.00
2023-04-03T23:51:08.169Z,100.00
2023-04-03T23:53:36.355Z,100.00
2023-04-03T23:56:11.464Z,100.00
2023-04-03T23:58:39.848Z,100.00
